Rechercher aéroport 
image banner adimage banner adimage banner ad
image banner ad

KBLU - Blue Canyon - Nyack

Situé à Emigrant Gap, United States

ICAO - BLU, IATA - BLU

Données fournies par Airmate  

Information générale

Coordonnées: N39°16'30" W120°42'35"
Élévation : 5284 feet MSL.
Variation magnétique : 16° East
Voir autres Aéroports à California

Données opérationnelles

Special qualification required
Heure actuelle UTC:
Heure actuelle locale:
Météo
METAR: KBLU 251452Z AUTO 00000KT 10SM OVC031 23/01 A3021 RMK AO2 SLP118 T02280006 51004 $
Voir NOTAMs / SUP AIP / TFR affectant cet aéroport [VIEW]
Fréquences de communication: [VIEW]

Pistes:

Identifiant RWYQFULongueur (ft)Largeur (ft)SurfaceLDA (ft)
15330050ASPH
33330050ASPH

Coordonnées de l'aéroport

Adresse: Emigrant Gap United States

Vue satellite de KBLU